Time;durP1;ratioP1;P1;durP2;ratioP2;P2;SDS_P1;SDS_P2;PMS_P1;PMS_P2;Temp;Humidity;BMP_temperature;BMP_pressure;BME280_temperature;BME280_humidity;BME280_pressure;Samples;Min_cycle;Max_cycle;Signal;HPM_P1;HPM_P2
2021/09/09 00:01:11;;;;;;;12.35;5.50;;;;;;;13.62;96.76;97930.44;5054213;28;20353;-82
2021/09/09 00:03:36;;;;;;;7.28;4.88;;;;;;;13.80;96.29;97961.44;5070981;28;20484;-82
2021/09/09 00:06:02;;;;;;;9.48;5.50;;;;;;;13.88;95.50;97964.44;5054298;28;20027;-82
2021/09/09 00:08:28;;;;;;;12.27;5.10;;;;;;;13.95;94.87;97965.75;5054518;28;20032;-82
2021/09/09 00:10:54;;;;;;;6.93;4.50;;;;;;;14.03;95.16;97976.84;5054782;28;20086;-83
2021/09/09 00:13:19;;;;;;;6.55;3.92;;;;;;;14.16;94.88;97987.63;5070951;28;20024;-82
2021/09/09 00:15:45;;;;;;;5.43;3.70;;;;;;;14.15;94.39;97988.56;5054359;28;20516;-81
2021/09/09 00:18:11;;;;;;;7.07;4.25;;;;;;;13.97;94.49;97957.56;5070960;28;20028;-82
2021/09/09 00:20:36;;;;;;;5.97;4.00;;;;;;;14.02;93.98;97968.91;5054602;28;20052;-82
2021/09/09 00:23:02;;;;;;;8.25;4.45;;;;;;;14.03;94.05;97968.78;5071126;28;20028;-82
2021/09/09 00:25:28;;;;;;;7.43;4.47;;;;;;;14.16;94.14;97986.75;5070852;28;20485;-82
2021/09/09 00:27:53;;;;;;;9.77;4.22;;;;;;;14.06;95.18;97984.69;5054536;28;20097;-81
2021/09/09 00:30:19;;;;;;;6.85;4.47;;;;;;;13.90;96.65;97984.06;5053945;28;20419;-82
2021/09/09 00:32:45;;;;;;;9.00;4.32;;;;;;;13.76;96.58;97953.66;5055770;28;20092;-82
2021/09/09 00:35:12;;;;;;;7.50;4.57;;;;;;;13.94;96.60;97985.53;5057677;28;20546;-82
2021/09/09 00:37:37;;;;;;;13.27;4.03;;;;;;;13.73;97.52;97970.00;5074567;28;20035;-83
2021/09/09 00:40:04;;;;;;;10.73;4.20;;;;;;;13.86;97.38;97979.84;5074749;28;20107;-82
2021/09/09 00:42:29;;;;;;;11.27;4.22;;;;;;;13.74;97.28;97959.16;5057252;28;20024;-82
2021/09/09 00:44:55;;;;;;;11.32;4.68;;;;;;;13.73;97.78;97983.44;5074283;28;20024;-83
2021/09/09 00:47:20;;;;;;;8.88;4.97;;;;;;;13.68;98.13;97982.91;5074351;28;20025;-83
2021/09/09 00:49:46;;;;;;;12.48;4.40;;;;;;;13.63;97.52;97963.56;5057719;28;20032;-82
2021/09/09 00:52:14;;;;;;;11.00;4.82;;;;;;;13.84;97.32;97988.97;5057410;28;20471;-82
2021/09/09 00:54:41;;;;;;;9.20;5.13;;;;;;;13.71;97.40;97971.94;5057217;28;20052;-83
2021/09/09 00:57:06;;;;;;;11.50;5.10;;;;;;;13.71;97.28;97963.88;5057206;28;20040;-82
2021/09/09 00:59:34;;;;;;;9.43;4.63;;;;;;;13.89;97.13;97986.84;5057041;28;20478;-82
2021/09/09 01:01:59;;;;;;;9.23;5.22;;;;;;;13.76;97.46;97975.19;5057145;28;20035;-82
2021/09/09 01:04:25;;;;;;;13.93;4.85;;;;;;;13.66;97.86;97974.09;5074009;28;20032;-82
2021/09/09 01:06:52;;;;;;;8.20;4.63;;;;;;;13.53;98.15;97953.38;5057026;28;20052;-83
2021/09/09 01:09:17;;;;;;;8.93;4.32;;;;;;;13.67;98.03;97981.19;5056996;28;20035;-82
2021/09/09 01:11:43;;;;;;;8.55;4.70;;;;;;;13.54;97.93;97959.63;5057120;28;20411;-82
2021/09/09 01:14:14;;;;;;;8.18;4.38;;;;;;;13.77;98.05;97993.03;5057006;28;20036;-82
2021/09/09 01:16:40;;;;;;;7.18;4.13;;;;;;;13.67;98.12;97979.34;5073923;28;20062;-82
2021/09/09 01:19:07;;;;;;;10.98;4.63;;;;;;;13.68;97.38;97980.22;5057391;28;20028;-82
2021/09/09 01:21:33;;;;;;;14.95;4.07;;;;;;;13.69;98.09;98003.47;5073625;28;20035;-82
2021/09/09 01:23:59;;;;;;;8.13;4.22;;;;;;;13.64;97.73;97995.69;5073731;28;20189;-82
2021/09/09 01:26:27;;;;;;;7.22;4.30;;;;;;;13.44;97.75;97978.19;5056493;28;20068;-82
2021/09/09 01:28:56;;;;;;;6.45;3.80;;;;;;;13.45;97.67;97996.06;5056814;28;20028;-82
2021/09/09 01:31:22;;;;;;;7.50;3.97;;;;;;;13.48;98.05;97990.47;5072980;28;20054;-82
2021/09/09 01:33:48;;;;;;;14.18;4.28;;;;;;;13.45;97.61;97979.94;5056149;28;20028;-82
2021/09/09 01:36:14;;;;;;;7.63;4.07;;;;;;;13.49;98.03;97994.91;5056760;28;20048;-82
2021/09/09 01:38:39;;;;;;;8.40;4.30;;;;;;;13.38;98.88;97983.16;5056359;28;20066;-82
2021/09/09 01:41:05;;;;;;;7.25;3.83;;;;;;;13.32;99.33;97972.81;5056361;28;20028;-82
2021/09/09 01:43:31;;;;;;;8.20;4.15;;;;;;;13.25;99.85;97966.09;5074264;28;20024;-82
2021/09/09 01:45:57;;;;;;;6.55;3.83;;;;;;;13.30;99.84;97972.88;5056663;28;20411;-82
2021/09/09 01:48:22;;;;;;;10.00;4.30;;;;;;;13.18;99.96;97957.59;5073070;28;20028;-82
2021/09/09 01:50:48;;;;;;;7.25;3.88;;;;;;;13.39;100.00;97990.22;5056374;28;20028;-82
2021/09/09 01:53:14;;;;;;;7.47;3.95;;;;;;;13.32;100.00;97992.44;5073212;28;20024;-82
2021/09/09 01:55:39;;;;;;;11.18;3.97;;;;;;;13.21;100.00;97981.56;5072655;28;20024;-82
2021/09/09 01:58:05;;;;;;;13.45;4.22;;;;;;;13.35;100.00;97986.88;5073249;28;20028;-82
2021/09/09 02:00:30;;;;;;;8.40;3.95;;;;;;;13.12;100.00;97943.69;5056150;28;20028;-82
2021/09/09 02:02:56;;;;;;;10.05;4.35;;;;;;;13.12;100.00;97946.38;5055856;28;20101;-82
2021/09/09 02:05:21;;;;;;;7.57;4.40;;;;;;;13.09;100.00;97968.06;5056002;28;20017;-82
2021/09/09 02:07:47;;;;;;;9.30;3.78;;;;;;;12.88;100.00;97944.31;5056189;28;20035;-83
2021/09/09 02:10:19;;;;;;;8.43;4.13;;;;;;;12.88;100.00;97928.19;5072771;28;20412;-82
2021/09/09 02:12:45;;;;;;;12.93;4.45;;;;;;;13.20;100.00;97984.31;5056980;28;20098;-82
2021/09/09 02:15:11;;;;;;;9.60;4.55;;;;;;;12.97;100.00;97964.31;5055914;28;20107;-82
2021/09/09 02:17:36;;;;;;;10.52;4.38;;;;;;;12.86;100.00;97939.97;5072193;28;20064;-82
2021/09/09 02:20:03;;;;;;;16.83;4.30;;;;;;;12.99;100.00;97973.13;5072090;28;20024;-82
2021/09/09 02:22:29;;;;;;;11.48;4.68;;;;;;;12.89;100.00;97975.53;5056156;28;20468;-82
2021/09/09 02:24:54;;;;;;;12.07;4.38;;;;;;;12.76;100.00;97965.72;5042759;28;20113;-82
2021/09/09 02:27:20;;;;;;;18.80;4.72;;;;;;;12.69;100.00;97967.91;5052075;28;20111;-82
2021/09/09 02:29:46;;;;;;;9.98;4.63;;;;;;;12.65;100.00;97968.19;5035367;28;20082;-82
2021/09/09 02:32:11;;;;;;;6.95;4.25;;;;;;;12.54;100.00;97954.59;5035515;28;20066;-82
2021/09/09 02:34:37;;;;;;;9.70;4.13;;;;;;;12.27;100.00;97925.88;5035056;28;20039;-82
2021/09/09 02:37:03;;;;;;;13.38;4.97;;;;;;;12.55;100.00;97975.97;5054014;28;20517;-82
2021/09/09 02:39:29;;;;;;;15.35;4.97;;;;;;;12.53;100.00;97964.47;5035497;28;20033;-82
2021/09/09 02:41:55;;;;;;;8.75;4.70;;;;;;;12.55;100.00;97967.06;5035641;28;20447;-82
2021/09/09 02:44:20;;;;;;;10.52;4.85;;;;;;;12.35;100.00;97938.81;5052227;28;20033;-82
2021/09/09 02:46:47;;;;;;;16.77;4.88;;;;;;;12.66;100.00;97988.72;5034945;28;20026;-82
2021/09/09 02:49:12;;;;;;;13.95;4.55;;;;;;;12.63;100.00;97989.78;5035212;28;20033;-82
2021/09/09 02:51:38;;;;;;;7.05;4.70;;;;;;;12.43;100.00;97953.47;5034962;28;20500;-85
2021/09/09 02:54:03;;;;;;;9.40;4.63;;;;;;;12.57;100.00;97978.56;5065105;28;20024;-85
2021/09/09 02:56:29;;;;;;;11.57;4.35;;;;;;;12.57;100.00;97991.97;5062978;28;20029;-85
2021/09/09 02:58:57;;;;;;;9.82;4.35;;;;;;;12.65;100.00;97995.91;5068913;28;20035;-85
2021/09/09 03:01:23;;;;;;;8.85;4.97;;;;;;;12.44;100.00;97968.59;5054554;28;20043;-85
2021/09/09 03:03:49;;;;;;;7.97;4.57;;;;;;;12.44;100.00;97976.66;5040749;28;20037;-85
2021/09/09 03:06:14;;;;;;;10.75;4.88;;;;;;;12.48;100.00;97996.97;5060135;28;20029;-85
2021/09/09 03:08:40;;;;;;;8.20;4.78;;;;;;;12.39;100.00;97973.41;5071583;28;20036;-84
2021/09/09 03:11:05;;;;;;;7.30;4.43;;;;;;;12.30;100.00;97971.31;5071605;28;20024;-85
2021/09/09 03:13:31;;;;;;;10.43;4.60;;;;;;;12.20;100.00;97955.84;5046503;28;20095;-84
2021/09/09 03:15:56;;;;;;;9.25;4.70;;;;;;;12.45;100.00;97974.84;5050836;28;20048;-85
2021/09/09 03:18:22;;;;;;;9.02;4.63;;;;;;;12.57;100.00;97989.31;5058647;28;20021;-85
2021/09/09 03:20:47;;;;;;;16.20;5.85;;;;;;;12.34;100.00;97959.41;5043786;28;20036;-84
2021/09/09 03:23:13;;;;;;;27.83;14.60;;;;;;;12.39;100.00;97956.44;5034570;28;20025;-84
2021/09/09 03:25:38;;;;;;;20.05;11.10;;;;;;;12.45;100.00;97985.56;5051998;28;20057;-85
2021/09/09 03:28:04;;;;;;;26.15;8.55;;;;;;;12.43;100.00;97979.41;5050027;28;20028;-84
2021/09/09 03:30:29;;;;;;;14.75;6.68;;;;;;;12.47;100.00;97989.88;5042229;28;20020;-84
2021/09/09 03:32:55;;;;;;;17.05;6.30;;;;;;;12.34;100.00;97972.81;5050870;28;20025;-84
2021/09/09 03:35:21;;;;;;;17.48;6.45;;;;;;;12.32;100.00;97969.38;5050198;28;20025;-85
2021/09/09 03:37:46;;;;;;;18.30;7.55;;;;;;;12.42;100.00;97983.06;5034016;28;20435;-84
2021/09/09 03:40:12;;;;;;;16.05;6.60;;;;;;;12.41;100.00;97970.63;5047833;28;20028;-84
2021/09/09 03:42:38;;;;;;;14.32;7.82;;;;;;;12.49;100.00;97996.00;5070927;28;20028;-84
2021/09/09 03:45:04;;;;;;;21.83;7.22;;;;;;;12.63;100.00;98007.69;5042161;28;20035;-84
2021/09/09 03:47:30;;;;;;;12.50;6.07;;;;;;;12.60;100.00;97997.16;5034228;28;20408;-84
2021/09/09 03:49:56;;;;;;;14.45;6.18;;;;;;;12.57;100.00;97990.16;5034003;28;20028;-84
2021/09/09 03:52:21;;;;;;;15.30;5.85;;;;;;;12.50;100.00;97994.19;5051038;28;20071;-85
2021/09/09 03:54:47;;;;;;;22.13;6.28;;;;;;;12.38;100.00;97968.13;5035756;28;20029;-84
2021/09/09 03:57:13;;;;;;;14.60;7.05;;;;;;;12.52;100.00;97988.75;5049246;28;20025;-85
2021/09/09 03:59:38;;;;;;;17.40;7.75;;;;;;;12.35;100.00;97969.19;5051112;28;20032;-84
2021/09/09 04:02:04;;;;;;;18.73;8.88;;;;;;;12.52;100.00;97998.50;5063745;28;20040;-85
2021/09/09 04:04:30;;;;;;;16.02;7.78;;;;;;;12.49;100.00;97989.78;5070585;28;20085;-85
2021/09/09 04:06:57;;;;;;;14.82;8.43;;;;;;;12.37;100.00;97986.03;5037083;28;20033;-84
2021/09/09 04:09:22;;;;;;;13.18;7.72;;;;;;;12.40;100.00;97995.72;5051605;28;20032;-84
2021/09/09 04:11:48;;;;;;;18.48;8.00;;;;;;;12.24;100.00;97960.91;5054787;28;20416;-84
2021/09/09 04:14:13;;;;;;;14.43;7.45;;;;;;;12.33;100.00;97968.44;5068320;28;20040;-85
2021/09/09 04:16:39;;;;;;;16.98;7.82;;;;;;;12.47;100.00;97986.31;5074840;28;20412;-84
2021/09/09 04:19:05;;;;;;;11.48;6.47;;;;;;;12.52;100.00;98000.31;5055367;28;20574;-85
2021/09/09 04:21:30;;;;;;;13.75;7.07;;;;;;;12.52;100.00;97994.09;5063334;28;20195;-84
2021/09/09 04:23:56;;;;;;;12.32;6.68;;;;;;;12.57;100.00;97997.34;5040243;28;20033;-85
2021/09/09 04:26:21;;;;;;;14.43;5.20;;;;;;;12.62;100.00;98001.47;5043741;28;20033;-85
2021/09/09 04:28:47;;;;;;;14.45;4.60;;;;;;;12.23;100.00;97932.41;5054222;28;20028;-85
2021/09/09 04:31:12;;;;;;;23.70;6.03;;;;;;;12.67;100.00;97998.50;5037331;28;20111;-85
2021/09/09 04:33:38;;;;;;;15.48;6.30;;;;;;;12.70;100.00;98001.88;5045466;28;20028;-84
2021/09/09 04:36:04;;;;;;;13.60;5.13;;;;;;;12.61;100.00;98009.63;5070587;28;20021;-85
2021/09/09 04:38:29;;;;;;;18.58;5.57;;;;;;;12.65;100.00;98008.47;5068940;28;20047;-84
2021/09/09 04:40:55;;;;;;;11.30;5.85;;;;;;;12.77;100.00;98010.38;5047313;28;20029;-84
2021/09/09 04:43:21;;;;;;;15.15;6.00;;;;;;;12.69;100.00;97994.75;5059823;28;20054;-85
2021/09/09 04:45:46;;;;;;;11.45;5.70;;;;;;;12.71;100.00;97979.41;5073397;28;20031;-85
2021/09/09 04:48:12;;;;;;;15.63;7.15;;;;;;;12.70;100.00;97987.56;5036972;28;20024;-85
2021/09/09 04:50:37;;;;;;;25.58;5.65;;;;;;;12.99;100.00;98010.72;5045378;28;20032;-85
2021/09/09 04:53:04;;;;;;;12.45;6.25;;;;;;;13.03;100.00;97983.59;5052133;28;20077;-86
2021/09/09 04:55:29;;;;;;;12.45;6.85;;;;;;;13.06;100.00;97977.16;5041932;28;20025;-85
2021/09/09 04:57:55;;;;;;;13.25;5.72;;;;;;;13.24;99.94;97981.34;5057530;28;20039;-86
2021/09/09 05:00:21;;;;;;;12.85;6.47;;;;;;;13.27;99.27;97978.47;5067827;28;20028;-76
2021/09/09 05:02:46;;;;;;;14.77;6.07;;;;;;;13.46;97.86;97989.72;5065627;28;20507;-78
2021/09/09 05:05:13;;;;;;;10.32;5.90;;;;;;;13.52;97.28;97994.69;5064207;28;20411;-78
2021/09/09 05:07:39;;;;;;;13.20;5.75;;;;;;;13.47;97.58;97986.06;5064205;28;20039;-76
2021/09/09 05:10:05;;;;;;;11.00;5.60;;;;;;;13.34;97.18;97957.44;5053273;28;20120;-77
2021/09/09 05:12:31;;;;;;;14.18;5.72;;;;;;;13.51;97.12;97971.47;5047791;28;20037;-76
2021/09/09 05:14:56;;;;;;;18.52;6.28;;;;;;;13.61;96.99;97982.47;5068080;28;20027;-76
2021/09/09 05:17:22;;;;;;;14.05;6.57;;;;;;;13.55;97.00;97994.50;5066766;28;20123;-76
2021/09/09 05:19:47;;;;;;;17.25;7.22;;;;;;;13.52;96.82;97977.69;5073290;28;20060;-76
2021/09/09 05:22:13;;;;;;;25.60;7.35;;;;;;;13.64;95.92;97984.06;5059351;28;20028;-77
2021/09/09 05:24:39;;;;;;;17.55;6.65;;;;;;;13.57;95.52;97984.50;5046792;28;20423;-76
2021/09/09 05:27:05;;;;;;;17.23;6.43;;;;;;;13.64;95.87;97987.63;5046887;28;20032;-77
2021/09/09 05:29:30;;;;;;;19.23;6.10;;;;;;;13.63;95.88;97983.22;5055503;28;20025;-76
2021/09/09 05:31:56;;;;;;;11.35;7.07;;;;;;;13.73;95.34;97967.31;5069109;28;20472;-76
2021/09/09 05:34:21;;;;;;;15.52;7.03;;;;;;;13.95;94.43;97970.28;5057460;28;20064;-77
2021/09/09 05:36:47;;;;;;;15.45;6.68;;;;;;;14.25;92.18;97984.28;5053495;28;20021;-76
2021/09/09 05:39:14;;;;;;;20.20;7.30;;;;;;;14.33;91.50;97981.97;5071576;28;20497;-77
2021/09/09 05:41:39;;;;;;;21.30;7.28;;;;;;;14.69;89.45;97993.78;5060833;28;20061;-77
2021/09/09 05:44:05;;;;;;;13.07;6.90;;;;;;;14.83;87.61;97978.34;5063360;28;20056;-78
2021/09/09 05:46:31;;;;;;;15.35;6.30;;;;;;;15.12;85.63;97982.50;5042158;28;20063;-77
2021/09/09 05:48:56;;;;;;;23.05;7.60;;;;;;;15.20;85.45;97985.50;5065719;28;20039;-77
2021/09/09 05:51:22;;;;;;;19.85;6.90;;;;;;;15.18;85.12;97981.19;5050192;28;20032;-77
2021/09/09 05:53:47;;;;;;;12.93;6.40;;;;;;;15.36;85.37;97971.75;5060237;28;20051;-77
2021/09/09 05:56:13;;;;;;;15.27;7.68;;;;;;;15.57;84.36;97978.25;5061355;28;20381;-79
2021/09/09 05:58:38;;;;;;;11.30;6.70;;;;;;;15.69;84.06;97985.41;5064292;28;20024;-77
2021/09/09 06:01:05;;;;;;;13.07;6.10;;;;;;;16.91;77.99;97982.16;5057761;28;20039;-77
2021/09/09 06:03:31;;;;;;;13.98;6.43;;;;;;;17.29;73.82;97962.78;5065191;28;20108;-77
2021/09/09 06:06:03;;;;;;;22.15;6.57;;;;;;;17.65;72.54;97976.03;5064554;28;20151;-78
2021/09/09 06:08:32;;;;;;;12.68;6.07;;;;;;;17.98;71.00;97987.69;5061039;28;20017;-77
2021/09/09 06:10:58;;;;;;;12.77;6.18;;;;;;;17.87;70.11;97973.22;5062908;28;20086;-77
2021/09/09 06:13:24;;;;;;;15.25;6.63;;;;;;;17.67;70.43;97979.47;5059037;28;20889;-77
2021/09/09 06:15:50;;;;;;;17.42;6.68;;;;;;;17.54;71.90;97989.53;5061536;28;20107;-78
2021/09/09 06:18:16;;;;;;;13.25;6.38;;;;;;;17.40;72.12;97988.97;5058512;28;20025;-77
2021/09/09 06:20:41;;;;;;;14.55;6.00;;;;;;;17.64;71.00;97989.69;5055495;28;20054;-77
2021/09/09 06:23:07;;;;;;;9.43;6.40;;;;;;;17.56;70.81;97986.75;5060326;28;20078;-77
2021/09/09 06:25:32;;;;;;;13.88;6.28;;;;;;;17.48;71.33;97983.78;5061858;28;20044;-78
2021/09/09 06:27:58;;;;;;;16.15;5.90;;;;;;;17.72;70.67;97987.19;5061084;28;20424;-77
2021/09/09 06:30:24;;;;;;;14.57;5.88;;;;;;;17.74;70.43;97994.22;5060992;28;20385;-77
2021/09/09 06:32:49;;;;;;;15.13;6.22;;;;;;;17.71;70.13;97980.94;5042378;28;20412;-77
2021/09/09 06:35:15;;;;;;;17.35;6.20;;;;;;;17.93;69.52;97995.38;5046043;28;20089;-77
2021/09/09 06:37:40;;;;;;;12.05;6.45;;;;;;;17.92;68.76;97971.97;5055207;28;20074;-77
2021/09/09 06:40:07;;;;;;;16.95;5.82;;;;;;;18.02;68.26;97990.03;5060189;28;20507;-77
2021/09/09 06:42:32;;;;;;;20.75;6.65;;;;;;;17.99;68.75;97998.41;5061058;28;21154;-78
2021/09/09 06:44:58;;;;;;;20.92;5.75;;;;;;;18.12;68.13;97992.81;5060507;28;20029;-79
2021/09/09 06:47:23;;;;;;;12.50;5.63;;;;;;;18.44;68.31;98012.56;5062051;28;20033;-76
2021/09/09 06:49:49;;;;;;;19.15;5.57;;;;;;;18.85;66.65;98009.88;5061551;28;20492;-76
2021/09/09 06:52:15;;;;;;;24.88;6.18;;;;;;;19.19;65.10;98007.72;5056346;28;20083;-77
2021/09/09 06:54:42;;;;;;;22.90;5.45;;;;;;;19.43;63.53;98013.69;5032124;28;20128;-75
2021/09/09 06:57:07;;;;;;;9.82;4.90;;;;;;;19.26;64.38;98027.88;5070980;28;20499;-82
2021/09/09 06:59:33;;;;;;;10.15;5.30;;;;;;;19.22;63.46;98018.31;5056052;28;20035;-82
2021/09/09 07:01:58;;;;;;;13.80;4.97;;;;;;;18.85;64.37;97996.31;5063680;28;20558;-77
2021/09/09 07:04:24;;;;;;;16.38;4.63;;;;;;;19.48;62.97;98037.69;5071561;28;20458;-77
2021/09/09 07:06:49;;;;;;;18.90;4.55;;;;;;;19.68;61.66;98027.75;5073078;28;20137;-77
2021/09/09 07:09:15;;;;;;;9.55;4.28;;;;;;;19.61;60.78;98011.16;5064877;28;20401;-77
2021/09/09 07:11:41;;;;;;;7.80;3.58;;;;;;;19.69;60.73;98030.31;5059078;28;20078;-77
2021/09/09 07:14:06;;;;;;;7.15;3.58;;;;;;;19.81;58.97;98028.34;5048872;28;20086;-77
2021/09/09 07:16:32;;;;;;;8.45;3.67;;;;;;;20.16;58.07;98027.78;5061445;28;20099;-77
2021/09/09 07:18:57;;;;;;;7.10;3.97;;;;;;;20.38;56.97;98032.97;5061817;28;20024;-77
2021/09/09 07:21:23;;;;;;;8.88;3.70;;;;;;;21.01;55.20;98031.44;5065776;28;20389;-76
2021/09/09 07:23:48;;;;;;;9.68;3.72;;;;;;;21.30;53.42;98034.06;5058801;28;20474;-77
2021/09/09 07:26:14;;;;;;;13.05;4.35;;;;;;;21.81;52.07;98030.81;5055186;28;20040;-77
2021/09/09 07:28:40;;;;;;;9.48;3.60;;;;;;;22.20;51.30;98017.78;5060885;28;20123;-77
2021/09/09 07:31:05;;;;;;;8.43;3.63;;;;;;;22.74;50.16;98030.38;5049803;28;20021;-78
2021/09/09 07:33:31;;;;;;;6.38;3.38;;;;;;;23.02;48.58;98043.72;5049671;28;20068;-77
2021/09/09 07:35:56;;;;;;;6.35;3.80;;;;;;;23.37;47.18;98018.16;5049817;28;20025;-77
2021/09/09 07:38:22;;;;;;;15.23;4.20;;;;;;;23.47;46.98;98034.47;5051386;28;20041;-78
2021/09/09 07:40:47;;;;;;;7.57;3.80;;;;;;;23.59;46.59;98036.72;5049827;28;20044;-77
2021/09/09 07:43:13;;;;;;;9.18;4.43;;;;;;;22.50;49.22;98047.38;5063841;28;20115;-76
2021/09/09 07:45:39;;;;;;;9.05;5.45;;;;;;;21.31;51.91;98055.72;5073815;28;20032;-76
2021/09/09 07:48:04;;;;;;;16.30;5.00;;;;;;;21.94;51.65;98039.47;5057933;28;20027;-76
2021/09/09 07:50:30;;;;;;;16.40;4.80;;;;;;;22.68;49.76;98040.91;5073917;28;20039;-76
2021/09/09 07:52:56;;;;;;;9.05;4.47;;;;;;;22.86;49.05;98043.59;5075356;28;20048;-76
2021/09/09 07:55:22;;;;;;;8.18;4.68;;;;;;;21.96;51.36;98045.66;5059904;28;20017;-76
2021/09/09 07:57:47;;;;;;;12.98;4.30;;;;;;;21.75;51.64;98034.97;5072734;28;20032;-76
2021/09/09 08:00:14;;;;;;;23.45;4.80;;;;;;;22.25;51.02;98039.97;5073658;28;20033;-76
2021/09/09 08:02:40;;;;;;;9.98;3.67;;;;;;;22.83;49.32;98038.44;5073617;28;20028;-77
2021/09/09 08:05:06;;;;;;;14.02;4.10;;;;;;;22.98;48.95;98044.22;5074725;28;20487;-77
2021/09/09 08:07:38;;;;;;;9.32;4.00;;;;;;;22.70;48.79;98026.25;5067965;28;20043;-77
2021/09/09 08:10:04;;;;;;;7.28;4.20;;;;;;;22.51;49.48;98049.94;5057617;28;20025;-76
2021/09/09 08:12:29;;;;;;;12.13;3.50;;;;;;;21.41;52.57;98050.22;5061548;28;20551;-76
2021/09/09 08:14:55;;;;;;;7.55;3.40;;;;;;;21.46;53.22;98046.03;5064557;28;20036;-76
2021/09/09 08:17:20;;;;;;;12.43;3.70;;;;;;;21.40;53.39;98034.91;5058630;28;20032;-78
2021/09/09 08:19:46;;;;;;;11.05;3.85;;;;;;;21.25;53.77;98050.88;5061203;28;20029;-77
2021/09/09 08:22:11;;;;;;;11.13;3.47;;;;;;;21.37;52.64;98044.22;5063280;28;20024;-76
2021/09/09 08:24:37;;;;;;;7.50;3.55;;;;;;;21.03;53.69;98046.59;5064578;28;20424;-76
2021/09/09 08:27:03;;;;;;;9.32;3.78;;;;;;;21.05;54.04;98047.31;5058027;28;20420;-79
2021/09/09 08:29:28;;;;;;;18.02;3.20;;;;;;;21.26;53.37;98040.81;5064948;28;20031;-76
2021/09/09 08:31:54;;;;;;;10.05;3.00;;;;;;;20.60;54.07;98038.13;5062919;28;20029;-78
2021/09/09 08:34:19;;;;;;;17.65;3.80;;;;;;;21.33;52.65;98041.94;5042758;28;20035;-76
2021/09/09 08:36:45;;;;;;;13.90;3.67;;;;;;;21.26;52.92;98047.13;5065592;28;20039;-77
2021/09/09 08:39:12;;;;;;;9.07;3.60;;;;;;;21.65;52.05;98047.81;5072985;28;20024;-76
2021/09/09 08:41:37;;;;;;;11.75;3.50;;;;;;;22.54;49.77;98041.44;5072865;28;20546;-77
2021/09/09 08:44:03;;;;;;;7.32;3.70;;;;;;;24.13;46.33;98016.25;5044724;28;20040;-77
2021/09/09 08:46:29;;;;;;;6.38;3.20;;;;;;;25.49;42.90;98015.50;5052815;28;20033;-76
2021/09/09 08:48:56;;;;;;;13.73;4.20;;;;;;;26.08;40.85;98001.16;5052662;28;20033;-76
2021/09/09 08:51:22;;;;;;;11.77;3.08;;;;;;;25.25;40.84;98006.31;5058541;28;20032;-76
2021/09/09 08:53:47;;;;;;;9.30;3.20;;;;;;;25.28;41.77;98010.56;5072996;28;20116;-77
2021/09/09 08:56:14;;;;;;;10.05;3.40;;;;;;;23.87;44.07;98015.44;5072714;28;20025;-77
2021/09/09 08:58:40;;;;;;;27.08;3.42;;;;;;;23.48;45.30;98019.75;5056165;28;20039;-77
2021/09/09 09:01:14;;;;;;;13.13;3.63;;;;;;;23.37;45.52;98033.69;5073434;28;20024;-77
2021/09/09 09:03:45;;;;;;;13.60;2.70;;;;;;;23.85;43.81;98005.72;5072615;28;20123;-77
2021/09/09 09:06:26;;;;;;;10.27;3.30;;;;;;;23.95;43.55;98012.75;5060207;28;20028;-77
2021/09/09 09:08:56;;;;;;;7.00;3.42;;;;;;;23.66;44.05;97995.94;5053600;28;20031;-77
2021/09/09 09:11:46;;;;;;;8.38;3.55;;;;;;;25.17;42.65;98016.41;5052427;28;20029;-78
2021/09/09 09:14:18;;;;;;;11.68;3.55;;;;;;;27.67;37.91;97978.06;5039285;28;20040;-78
2021/09/09 09:16:58;;;;;;;8.50;3.13;;;;;;;28.79;34.46;97980.19;5035927;28;20082;-78
2021/09/09 09:19:26;;;;;;;5.18;2.80;;;;;;;28.05;34.90;97976.88;5021208;28;20049;-78
2021/09/09 09:21:59;;;;;;;7.75;2.80;;;;;;;27.00;36.79;97997.38;5061232;28;20115;-78
2021/09/09 09:24:32;;;;;;;11.38;3.53;;;;;;;26.07;38.37;97990.34;5058425;28;20017;-79
2021/09/09 09:27:13;;;;;;;7.43;2.80;;;;;;;24.25;41.35;97994.91;5063141;28;20028;-77
2021/09/09 09:29:41;;;;;;;7.82;2.88;;;;;;;23.33;44.13;98015.91;5051256;28;20403;-76
2021/09/09 09:32:11;;;;;;;4.90;2.63;;;;;;;23.12;45.14;98017.16;5040597;28;20033;-77
2021/09/09 09:34:37;;;;;;;6.65;3.03;;;;;;;22.95;45.78;97996.25;5062095;28;20526;-77
2021/09/09 09:37:03;;;;;;;8.75;3.13;;;;;;;22.82;46.19;98014.06;5067659;28;20028;-78
2021/09/09 09:39:29;;;;;;;8.63;3.22;;;;;;;22.79;45.93;98007.06;5056128;28;20020;-79
2021/09/09 09:41:54;;;;;;;14.55;3.00;;;;;;;22.53;47.02;98022.50;5062545;28;20506;-78
2021/09/09 09:44:38;;;;;;;9.15;3.08;;;;;;;22.10;47.42;97999.63;5052825;28;20125;-78
2021/09/09 09:47:18;;;;;;;9.07;3.03;;;;;;;22.02;47.90;98021.38;5051613;28;20040;-77
2021/09/09 09:49:45;;;;;;;7.22;2.83;;;;;;;21.55;49.24;98017.03;5067575;28;20425;-78
2021/09/09 09:52:20;;;;;;;13.38;3.50;;;;;;;21.03;50.52;98008.53;5071373;28;20115;-79
2021/09/09 09:54:55;;;;;;;10.27;3.38;;;;;;;21.09;50.81;98004.38;5039061;28;20131;-79
2021/09/09 09:57:22;;;;;;;11.43;3.95;;;;;;;21.14;51.23;98006.63;5044121;28;20060;-77
2021/09/09 09:59:47;;;;;;;16.98;3.83;;;;;;;21.13;51.35;98002.22;5051436;28;20051;-77
2021/09/09 10:02:13;;;;;;;12.10;3.50;;;;;;;20.83;52.16;97995.09;5051062;28;20547;-76
2021/09/09 10:04:44;;;;;;;13.35;3.90;;;;;;;20.77;52.58;97996.56;5064010;28;20032;-79
2021/09/09 10:07:11;;;;;;;7.38;3.35;;;;;;;20.67;52.59;97990.31;5043234;28;20025;-80
2021/09/09 10:09:38;;;;;;;5.50;3.05;;;;;;;20.79;51.84;97993.72;5071941;28;20028;-79
2021/09/09 10:12:05;;;;;;;8.35;3.20;;;;;;;20.86;51.94;97990.22;5054477;28;20033;-81
2021/09/09 10:14:31;;;;;;;9.23;3.03;;;;;;;20.88;52.11;97971.94;5053984;28;20025;-80
2021/09/09 10:16:58;;;;;;;16.65;4.05;;;;;;;21.02;52.11;97985.03;5052871;28;20495;-84
2021/09/09 10:19:26;;;;;;;7.47;3.70;;;;;;;21.10;51.71;97962.56;5042104;28;20027;-86
2021/09/09 10:22:21;;;;;;;14.48;4.20;;;;;;;21.32;52.51;97996.69;5046903;28;20020;-85
2021/09/09 10:24:49;;;;;;;8.65;3.85;;;;;;;21.25;51.88;97992.84;5055440;28;20043;-83
2021/09/09 10:27:33;;;;;;;6.72;3.10;;;;;;;21.24;51.20;97977.53;5069715;28;20059;-86
2021/09/09 10:30:16;;;;;;;8.15;3.70;;;;;;;21.21;51.87;97983.25;5067841;28;20032;-84
2021/09/09 10:32:54;;;;;;;8.50;3.60;;;;;;;21.35;51.83;97996.38;5056441;28;20020;-84
2021/09/09 10:35:26;;;;;;;7.63;3.08;;;;;;;21.34;51.81;97975.63;5048765;28;20036;-84
2021/09/09 10:37:55;;;;;;;12.33;3.53;;;;;;;21.43;51.40;97988.31;5057472;28;20108;-80
2021/09/09 10:40:38;;;;;;;4.60;2.95;;;;;;;21.40;51.82;97985.91;5069617;28;20027;-81
2021/09/09 10:43:11;;;;;;;8.63;3.83;;;;;;;21.30;52.50;97999.53;5059480;28;20028;-82
2021/09/09 10:45:37;;;;;;;;;;;;;;;21.20;53.24;97997.88;5059811;28;20025;-79
2021/09/09 10:48:22;;;;;;;6.70;3.00;;;;;;;20.99;52.01;97957.25;5068689;28;19916;-80
2021/09/09 10:51:10;;;;;;;11.48;4.43;;;;;;;21.36;53.02;97989.91;5051716;28;20408;-78
2021/09/09 10:53:56;;;;;;;14.13;3.80;;;;;;;21.58;52.04;97989.50;5054770;28;20064;-79
2021/09/09 10:56:24;;;;;;;11.25;5.20;;;;;;;21.35;52.38;97991.78;5033847;28;20123;-80
2021/09/09 10:59:12;;;;;;;13.55;3.88;;;;;;;21.28;52.47;97990.69;5068743;28;20411;-80
2021/09/09 11:01:45;;;;;;;6.15;3.10;;;;;;;21.46;50.92;97974.41;5059461;28;20082;-78
2021/09/09 11:04:27;;;;;;;9.68;3.78;;;;;;;21.67;50.41;97977.69;5049328;28;20021;-77
2021/09/09 11:06:56;;;;;;;12.43;3.47;;;;;;;21.71;50.68;97975.53;5065703;28;20036;-79
2021/09/09 11:09:23;;;;;;;8.98;3.63;;;;;;;21.29;51.07;97964.31;5067575;28;20048;-80
2021/09/09 11:12:03;;;;;;;11.25;4.25;;;;;;;21.38;51.48;97968.88;5067650;28;20093;-79
2021/09/09 11:14:30;;;;;;;21.75;4.68;;;;;;;21.40;51.59;97977.72;5078540;28;20024;-79
2021/09/09 11:16:56;;;;;;;8.68;3.95;;;;;;;21.38;51.48;97956.09;5085422;28;20025;-78
2021/09/09 11:19:22;;;;;;;13.60;4.97;;;;;;;22.03;49.97;97970.44;5068236;28;20063;-78
2021/09/09 11:21:49;;;;;;;9.18;3.97;;;;;;;22.25;49.62;97964.50;5071689;28;20027;-78
2021/09/09 11:24:16;;;;;;;10.45;3.70;;;;;;;22.37;49.00;97973.28;5081623;28;20491;-78
2021/09/09 11:26:52;;;;;;;12.60;4.03;;;;;;;22.30;49.64;97955.88;5079276;28;20024;-78